sensor_id;sensor_type;location;lat;lon;timestamp;P1;durP1;ratioP1;P2;durP2;ratioP2
62707;SDS011;48769;51.624;5.886;2023-06-10T00:00:38;11.00;;;9.85;;
62707;SDS011;48769;51.624;5.886;2023-06-10T00:03:06;11.82;;;9.45;;
62707;SDS011;48769;51.624;5.886;2023-06-10T00:05:31;10.80;;;9.45;;
62707;SDS011;48769;51.624;5.886;2023-06-10T00:07:56;11.32;;;9.65;;
62707;SDS011;48769;51.624;5.886;2023-06-10T00:10:23;12.57;;;9.75;;
62707;SDS011;48769;51.624;5.886;2023-06-10T00:12:49;11.10;;;9.73;;
62707;SDS011;48769;51.624;5.886;2023-06-10T00:15:16;14.20;;;9.63;;
62707;SDS011;48769;51.624;5.886;2023-06-10T00:17:42;10.60;;;9.60;;
62707;SDS011;48769;51.624;5.886;2023-06-10T00:20:08;11.77;;;10.57;;
62707;SDS011;48769;51.624;5.886;2023-06-10T00:22:36;13.15;;;10.32;;
62707;SDS011;48769;51.624;5.886;2023-06-10T00:25:03;11.93;;;10.73;;
62707;SDS011;48769;51.624;5.886;2023-06-10T00:27:30;12.00;;;10.80;;
62707;SDS011;48769;51.624;5.886;2023-06-10T00:30:03;12.15;;;10.93;;
62707;SDS011;48769;51.624;5.886;2023-06-10T00:32:31;12.93;;;9.57;;
62707;SDS011;48769;51.624;5.886;2023-06-10T00:34:57;11.95;;;10.63;;
62707;SDS011;48769;51.624;5.886;2023-06-10T00:37:22;12.18;;;10.35;;
62707;SDS011;48769;51.624;5.886;2023-06-10T00:39:47;12.45;;;10.73;;
62707;SDS011;48769;51.624;5.886;2023-06-10T00:42:13;11.63;;;10.52;;
62707;SDS011;48769;51.624;5.886;2023-06-10T00:44:38;12.57;;;11.10;;
62707;SDS011;48769;51.624;5.886;2023-06-10T00:47:03;11.85;;;10.40;;
62707;SDS011;48769;51.624;5.886;2023-06-10T00:49:30;13.38;;;10.77;;
62707;SDS011;48769;51.624;5.886;2023-06-10T00:51:56;14.80;;;11.20;;
62707;SDS011;48769;51.624;5.886;2023-06-10T00:54:21;16.98;;;11.40;;
62707;SDS011;48769;51.624;5.886;2023-06-10T00:56:47;12.60;;;10.55;;
62707;SDS011;48769;51.624;5.886;2023-06-10T00:59:13;11.93;;;10.65;;
62707;SDS011;48769;51.624;5.886;2023-06-10T01:01:40;11.90;;;10.70;;
62707;SDS011;48769;51.624;5.886;2023-06-10T01:04:06;12.15;;;10.75;;
62707;SDS011;48769;51.624;5.886;2023-06-10T01:06:43;12.00;;;10.80;;
62707;SDS011;48769;51.624;5.886;2023-06-10T01:15:17;14.27;;;11.27;;
62707;SDS011;48769;51.624;5.886;2023-06-10T01:17:53;19.30;;;11.75;;
62707;SDS011;48769;51.624;5.886;2023-06-10T01:20:19;17.63;;;12.20;;
62707;SDS011;48769;51.624;5.886;2023-06-10T01:22:44;15.23;;;11.55;;
62707;SDS011;48769;51.624;5.886;2023-06-10T01:25:10;12.93;;;11.50;;
62707;SDS011;48769;51.624;5.886;2023-06-10T01:27:36;12.73;;;11.48;;
62707;SDS011;48769;51.624;5.886;2023-06-10T01:30:11;14.23;;;11.82;;
62707;SDS011;48769;51.624;5.886;2023-06-10T01:32:43;13.65;;;11.40;;
62707;SDS011;48769;51.624;5.886;2023-06-10T01:35:11;13.82;;;11.65;;
62707;SDS011;48769;51.624;5.886;2023-06-10T01:37:40;15.23;;;12.07;;
62707;SDS011;48769;51.624;5.886;2023-06-10T01:40:10;12.77;;;11.52;;
62707;SDS011;48769;51.624;5.886;2023-06-10T01:42:37;14.63;;;11.27;;
62707;SDS011;48769;51.624;5.886;2023-06-10T01:45:02;14.05;;;12.00;;
62707;SDS011;48769;51.624;5.886;2023-06-10T01:47:28;17.42;;;12.07;;
62707;SDS011;48769;51.624;5.886;2023-06-10T01:49:54;13.57;;;12.07;;
62707;SDS011;48769;51.624;5.886;2023-06-10T01:52:19;15.18;;;13.38;;
62707;SDS011;48769;51.624;5.886;2023-06-10T01:54:44;16.63;;;13.57;;
62707;SDS011;48769;51.624;5.886;2023-06-10T01:57:10;14.88;;;13.35;;
62707;SDS011;48769;51.624;5.886;2023-06-10T01:59:35;15.05;;;13.40;;
62707;SDS011;48769;51.624;5.886;2023-06-10T02:02:02;17.38;;;13.25;;
62707;SDS011;48769;51.624;5.886;2023-06-10T02:04:28;19.48;;;13.38;;
62707;SDS011;48769;51.624;5.886;2023-06-10T02:06:53;15.95;;;14.30;;
62707;SDS011;48769;51.624;5.886;2023-06-10T02:09:20;16.88;;;14.07;;
62707;SDS011;48769;51.624;5.886;2023-06-10T02:11:45;20.20;;;13.73;;
62707;SDS011;48769;51.624;5.886;2023-06-10T02:14:11;14.88;;;13.43;;
62707;SDS011;48769;51.624;5.886;2023-06-10T02:16:36;19.15;;;14.07;;
62707;SDS011;48769;51.624;5.886;2023-06-10T02:19:01;18.75;;;14.70;;
62707;SDS011;48769;51.624;5.886;2023-06-10T02:21:28;14.57;;;13.15;;
62707;SDS011;48769;51.624;5.886;2023-06-10T02:23:53;15.15;;;13.57;;
62707;SDS011;48769;51.624;5.886;2023-06-10T02:26:18;14.65;;;13.13;;
62707;SDS011;48769;51.624;5.886;2023-06-10T02:28:45;16.02;;;14.32;;
62707;SDS011;48769;51.624;5.886;2023-06-10T02:31:10;16.30;;;14.55;;
62707;SDS011;48769;51.624;5.886;2023-06-10T02:33:36;17.35;;;13.95;;
62707;SDS011;48769;51.624;5.886;2023-06-10T02:36:05;14.98;;;13.52;;
62707;SDS011;48769;51.624;5.886;2023-06-10T02:38:31;16.42;;;14.32;;
62707;SDS011;48769;51.624;5.886;2023-06-10T02:40:56;18.40;;;14.68;;
62707;SDS011;48769;51.624;5.886;2023-06-10T02:43:21;16.38;;;14.75;;
62707;SDS011;48769;51.624;5.886;2023-06-10T02:45:46;17.58;;;14.18;;
62707;SDS011;48769;51.624;5.886;2023-06-10T02:48:12;18.08;;;15.18;;
62707;SDS011;48769;51.624;5.886;2023-06-10T02:50:37;15.93;;;14.32;;
62707;SDS011;48769;51.624;5.886;2023-06-10T02:53:05;18.23;;;15.13;;
62707;SDS011;48769;51.624;5.886;2023-06-10T02:55:30;17.40;;;14.40;;
62707;SDS011;48769;51.624;5.886;2023-06-10T02:57:55;17.48;;;14.05;;
62707;SDS011;48769;51.624;5.886;2023-06-10T03:00:21;15.80;;;14.20;;
62707;SDS011;48769;51.624;5.886;2023-06-10T03:02:46;18.42;;;13.60;;
62707;SDS011;48769;51.624;5.886;2023-06-10T03:05:11;16.48;;;13.95;;
62707;SDS011;48769;51.624;5.886;2023-06-10T03:07:38;20.13;;;14.90;;
62707;SDS011;48769;51.624;5.886;2023-06-10T03:10:06;18.05;;;14.38;;
62707;SDS011;48769;51.624;5.886;2023-06-10T03:12:32;17.27;;;14.50;;
62707;SDS011;48769;51.624;5.886;2023-06-10T03:14:57;19.45;;;15.93;;
62707;SDS011;48769;51.624;5.886;2023-06-10T03:17:23;18.30;;;16.35;;
62707;SDS011;48769;51.624;5.886;2023-06-10T03:19:48;15.93;;;14.32;;
62707;SDS011;48769;51.624;5.886;2023-06-10T03:22:14;16.70;;;14.95;;
62707;SDS011;48769;51.624;5.886;2023-06-10T03:24:41;16.95;;;15.18;;
62707;SDS011;48769;51.624;5.886;2023-06-10T03:27:09;22.35;;;15.10;;
62707;SDS011;48769;51.624;5.886;2023-06-10T03:29:35;18.95;;;15.15;;
62707;SDS011;48769;51.624;5.886;2023-06-10T03:32:04;17.55;;;15.48;;
62707;SDS011;48769;51.624;5.886;2023-06-10T03:34:30;18.77;;;16.08;;
62707;SDS011;48769;51.624;5.886;2023-06-10T03:36:56;17.50;;;14.32;;
62707;SDS011;48769;51.624;5.886;2023-06-10T03:39:22;17.92;;;15.73;;
62707;SDS011;48769;51.624;5.886;2023-06-10T03:41:48;18.77;;;14.27;;
62707;SDS011;48769;51.624;5.886;2023-06-10T03:44:14;16.70;;;14.85;;
62707;SDS011;48769;51.624;5.886;2023-06-10T03:46:40;16.65;;;14.73;;
62707;SDS011;48769;51.624;5.886;2023-06-10T03:49:05;16.77;;;15.18;;
62707;SDS011;48769;51.624;5.886;2023-06-10T03:51:30;21.95;;;14.68;;
62707;SDS011;48769;51.624;5.886;2023-06-10T03:53:56;18.10;;;15.70;;
62707;SDS011;48769;51.624;5.886;2023-06-10T03:56:21;19.48;;;15.10;;
62707;SDS011;48769;51.624;5.886;2023-06-10T03:58:46;16.55;;;14.57;;
62707;SDS011;48769;51.624;5.886;2023-06-10T04:01:12;16.13;;;14.40;;
62707;SDS011;48769;51.624;5.886;2023-06-10T04:03:38;19.65;;;14.55;;
62707;SDS011;48769;51.624;5.886;2023-06-10T04:06:04;18.67;;;14.30;;
62707;SDS011;48769;51.624;5.886;2023-06-10T04:08:30;19.23;;;14.18;;
62707;SDS011;48769;51.624;5.886;2023-06-10T04:10:57;18.83;;;14.30;;
62707;SDS011;48769;51.624;5.886;2023-06-10T04:13:23;16.85;;;13.30;;
62707;SDS011;48769;51.624;5.886;2023-06-10T04:15:48;16.80;;;13.52;;
62707;SDS011;48769;51.624;5.886;2023-06-10T04:18:13;20.00;;;14.75;;
62707;SDS011;48769;51.624;5.886;2023-06-10T04:20:39;14.85;;;13.35;;
62707;SDS011;48769;51.624;5.886;2023-06-10T04:23:04;16.20;;;13.50;;
62707;SDS011;48769;51.624;5.886;2023-06-10T04:25:29;18.65;;;13.30;;
62707;SDS011;48769;51.624;5.886;2023-06-10T04:27:55;16.42;;;12.80;;
62707;SDS011;48769;51.624;5.886;2023-06-10T04:30:20;16.58;;;13.65;;
62707;SDS011;48769;51.624;5.886;2023-06-10T04:32:46;13.80;;;12.32;;
62707;SDS011;48769;51.624;5.886;2023-06-10T04:35:12;20.05;;;13.82;;
62707;SDS011;48769;51.624;5.886;2023-06-10T04:37:39;16.20;;;13.80;;
62707;SDS011;48769;51.624;5.886;2023-06-10T04:40:05;17.65;;;12.57;;
62707;SDS011;48769;51.624;5.886;2023-06-10T04:42:31;15.32;;;13.07;;
62707;SDS011;48769;51.624;5.886;2023-06-10T04:44:56;17.60;;;13.35;;
62707;SDS011;48769;51.624;5.886;2023-06-10T04:47:25;17.02;;;13.00;;
62707;SDS011;48769;51.624;5.886;2023-06-10T04:49:51;17.13;;;12.93;;
62707;SDS011;48769;51.624;5.886;2023-06-10T04:52:17;17.52;;;13.65;;
62707;SDS011;48769;51.624;5.886;2023-06-10T04:54:42;13.35;;;11.70;;
62707;SDS011;48769;51.624;5.886;2023-06-10T04:57:08;17.13;;;12.52;;
62707;SDS011;48769;51.624;5.886;2023-06-10T04:59:33;15.30;;;12.43;;
62707;SDS011;48769;51.624;5.886;2023-06-10T05:02:02;13.10;;;11.70;;
62707;SDS011;48769;51.624;5.886;2023-06-10T05:04:28;18.95;;;13.48;;
62707;SDS011;48769;51.624;5.886;2023-06-10T05:06:54;16.15;;;12.32;;
62707;SDS011;48769;51.624;5.886;2023-06-10T05:09:19;17.58;;;11.88;;
62707;SDS011;48769;51.624;5.886;2023-06-10T05:11:45;14.30;;;11.82;;
62707;SDS011;48769;51.624;5.886;2023-06-10T05:14:11;13.63;;;10.95;;
62707;SDS011;48769;51.624;5.886;2023-06-10T05:16:36;16.52;;;12.32;;
62707;SDS011;48769;51.624;5.886;2023-06-10T05:19:02;14.73;;;11.57;;
62707;SDS011;48769;51.624;5.886;2023-06-10T05:21:28;17.20;;;11.02;;
62707;SDS011;48769;51.624;5.886;2023-06-10T05:23:53;16.83;;;11.13;;
62707;SDS011;48769;51.624;5.886;2023-06-10T05:26:19;15.57;;;11.50;;
62707;SDS011;48769;51.624;5.886;2023-06-10T05:28:45;16.27;;;10.48;;
62707;SDS011;48769;51.624;5.886;2023-06-10T05:31:10;12.38;;;9.75;;
62707;SDS011;48769;51.624;5.886;2023-06-10T05:33:35;16.80;;;10.95;;
62707;SDS011;48769;51.624;5.886;2023-06-10T05:36:00;12.98;;;11.00;;
62707;SDS011;48769;51.624;5.886;2023-06-10T05:38:26;17.92;;;11.10;;
62707;SDS011;48769;51.624;5.886;2023-06-10T05:40:51;15.55;;;11.18;;
62707;SDS011;48769;51.624;5.886;2023-06-10T05:43:16;16.75;;;10.88;;
62707;SDS011;48769;51.624;5.886;2023-06-10T05:45:42;18.95;;;11.35;;
62707;SDS011;48769;51.624;5.886;2023-06-10T05:48:07;16.70;;;10.70;;
62707;SDS011;48769;51.624;5.886;2023-06-10T05:50:33;12.93;;;10.43;;
62707;SDS011;48769;51.624;5.886;2023-06-10T05:53:03;16.58;;;10.43;;
62707;SDS011;48769;51.624;5.886;2023-06-10T05:55:28;16.15;;;10.43;;
62707;SDS011;48769;51.624;5.886;2023-06-10T05:58:00;16.85;;;11.95;;
62707;SDS011;48769;51.624;5.886;2023-06-10T06:00:25;12.65;;;10.80;;
62707;SDS011;48769;51.624;5.886;2023-06-10T06:02:51;15.18;;;10.20;;
62707;SDS011;48769;51.624;5.886;2023-06-10T06:05:17;15.80;;;11.15;;
62707;SDS011;48769;51.624;5.886;2023-06-10T06:07:43;12.70;;;9.93;;
62707;SDS011;48769;51.624;5.886;2023-06-10T06:10:08;14.77;;;10.70;;
62707;SDS011;48769;51.624;5.886;2023-06-10T06:12:33;15.52;;;10.25;;
62707;SDS011;48769;51.624;5.886;2023-06-10T06:14:59;12.82;;;10.52;;
62707;SDS011;48769;51.624;5.886;2023-06-10T06:17:24;13.25;;;10.13;;
62707;SDS011;48769;51.624;5.886;2023-06-10T06:19:49;12.23;;;9.82;;
62707;SDS011;48769;51.624;5.886;2023-06-10T06:22:15;16.88;;;9.73;;
62707;SDS011;48769;51.624;5.886;2023-06-10T06:24:40;15.27;;;10.65;;
62707;SDS011;48769;51.624;5.886;2023-06-10T06:27:05;13.95;;;10.25;;
62707;SDS011;48769;51.624;5.886;2023-06-10T06:29:31;14.50;;;9.88;;
62707;SDS011;48769;51.624;5.886;2023-06-10T06:31:56;13.20;;;9.85;;
62707;SDS011;48769;51.624;5.886;2023-06-10T06:34:21;15.93;;;10.48;;
62707;SDS011;48769;51.624;5.886;2023-06-10T06:36:47;15.48;;;10.02;;
62707;SDS011;48769;51.624;5.886;2023-06-10T06:39:12;14.10;;;9.75;;
62707;SDS011;48769;51.624;5.886;2023-06-10T06:41:37;13.43;;;9.73;;
62707;SDS011;48769;51.624;5.886;2023-06-10T06:44:03;13.07;;;10.18;;
62707;SDS011;48769;51.624;5.886;2023-06-10T06:46:28;14.30;;;9.77;;
62707;SDS011;48769;51.624;5.886;2023-06-10T06:48:53;13.43;;;10.32;;
62707;SDS011;48769;51.624;5.886;2023-06-10T06:51:18;14.50;;;10.10;;
62707;SDS011;48769;51.624;5.886;2023-06-10T06:53:44;16.10;;;10.52;;
62707;SDS011;48769;51.624;5.886;2023-06-10T06:56:11;11.63;;;9.23;;
62707;SDS011;48769;51.624;5.886;2023-06-10T06:58:37;14.35;;;8.80;;
62707;SDS011;48769;51.624;5.886;2023-06-10T07:01:02;12.73;;;8.93;;
62707;SDS011;48769;51.624;5.886;2023-06-10T07:03:28;12.48;;;8.77;;
62707;SDS011;48769;51.624;5.886;2023-06-10T07:05:53;12.80;;;8.73;;
62707;SDS011;48769;51.624;5.886;2023-06-10T07:08:18;11.60;;;8.98;;
62707;SDS011;48769;51.624;5.886;2023-06-10T07:10:44;12.45;;;8.35;;
62707;SDS011;48769;51.624;5.886;2023-06-10T07:13:09;13.95;;;8.30;;
62707;SDS011;48769;51.624;5.886;2023-06-10T07:15:35;13.57;;;8.27;;
62707;SDS011;48769;51.624;5.886;2023-06-10T07:18:00;12.32;;;9.05;;
62707;SDS011;48769;51.624;5.886;2023-06-10T07:20:25;10.98;;;7.78;;
62707;SDS011;48769;51.624;5.886;2023-06-10T07:22:51;11.43;;;8.43;;
62707;SDS011;48769;51.624;5.886;2023-06-10T07:25:16;10.57;;;8.00;;
62707;SDS011;48769;51.624;5.886;2023-06-10T07:27:41;10.50;;;8.35;;
62707;SDS011;48769;51.624;5.886;2023-06-10T07:30:07;10.05;;;8.13;;
62707;SDS011;48769;51.624;5.886;2023-06-10T07:32:36;12.55;;;7.40;;
62707;SDS011;48769;51.624;5.886;2023-06-10T07:35:01;11.18;;;7.88;;
62707;SDS011;48769;51.624;5.886;2023-06-10T07:37:26;9.65;;;7.30;;
62707;SDS011;48769;51.624;5.886;2023-06-10T07:39:52;10.75;;;7.38;;
62707;SDS011;48769;51.624;5.886;2023-06-10T07:42:17;10.65;;;7.97;;
62707;SDS011;48769;51.624;5.886;2023-06-10T07:44:43;16.45;;;8.00;;
62707;SDS011;48769;51.624;5.886;2023-06-10T07:47:08;9.90;;;7.35;;
62707;SDS011;48769;51.624;5.886;2023-06-10T07:49:34;9.15;;;7.03;;
62707;SDS011;48769;51.624;5.886;2023-06-10T07:51:59;12.68;;;7.65;;
62707;SDS011;48769;51.624;5.886;2023-06-10T07:54:24;10.75;;;7.68;;
62707;SDS011;48769;51.624;5.886;2023-06-10T07:56:50;12.05;;;7.38;;
62707;SDS011;48769;51.624;5.886;2023-06-10T07:59:17;10.68;;;7.10;;
62707;SDS011;48769;51.624;5.886;2023-06-10T08:01:43;14.60;;;8.25;;
62707;SDS011;48769;51.624;5.886;2023-06-10T08:04:08;9.10;;;7.53;;
62707;SDS011;48769;51.624;5.886;2023-06-10T08:06:34;10.00;;;7.30;;
62707;SDS011;48769;51.624;5.886;2023-06-10T08:08:59;11.55;;;7.55;;
62707;SDS011;48769;51.624;5.886;2023-06-10T08:11:25;14.70;;;8.13;;
62707;SDS011;48769;51.624;5.886;2023-06-10T08:13:53;12.18;;;7.82;;
62707;SDS011;48769;51.624;5.886;2023-06-10T08:16:18;14.65;;;7.78;;
62707;SDS011;48769;51.624;5.886;2023-06-10T08:18:44;12.90;;;7.88;;
62707;SDS011;48769;51.624;5.886;2023-06-10T08:21:09;8.38;;;6.97;;
62707;SDS011;48769;51.624;5.886;2023-06-10T08:23:34;13.27;;;7.50;;
62707;SDS011;48769;51.624;5.886;2023-06-10T08:26:00;9.23;;;7.00;;
62707;SDS011;48769;51.624;5.886;2023-06-10T08:28:25;12.40;;;7.40;;
62707;SDS011;48769;51.624;5.886;2023-06-10T08:30:50;10.10;;;7.65;;
62707;SDS011;48769;51.624;5.886;2023-06-10T08:33:16;10.98;;;7.55;;
62707;SDS011;48769;51.624;5.886;2023-06-10T08:35:41;9.50;;;7.70;;
62707;SDS011;48769;51.624;5.886;2023-06-10T08:38:06;11.18;;;8.02;;
62707;SDS011;48769;51.624;5.886;2023-06-10T08:40:32;10.38;;;7.75;;
62707;SDS011;48769;51.624;5.886;2023-06-10T08:43:00;11.25;;;7.30;;
62707;SDS011;48769;51.624;5.886;2023-06-10T08:45:30;8.95;;;7.15;;
62707;SDS011;48769;51.624;5.886;2023-06-10T08:48:00;9.63;;;7.40;;
62707;SDS011;48769;51.624;5.886;2023-06-10T08:50:31;11.85;;;7.53;;
62707;SDS011;48769;51.624;5.886;2023-06-10T08:53:01;10.70;;;7.50;;
62707;SDS011;48769;51.624;5.886;2023-06-10T08:55:30;10.60;;;6.82;;
62707;SDS011;48769;51.624;5.886;2023-06-10T08:58:01;13.10;;;7.28;;
62707;SDS011;48769;51.624;5.886;2023-06-10T09:00:28;11.10;;;7.50;;
62707;SDS011;48769;51.624;5.886;2023-06-10T09:02:54;17.13;;;7.47;;
62707;SDS011;48769;51.624;5.886;2023-06-10T09:05:21;11.98;;;7.25;;
62707;SDS011;48769;51.624;5.886;2023-06-10T09:07:47;11.75;;;6.85;;
62707;SDS011;48769;51.624;5.886;2023-06-10T09:10:13;12.23;;;7.03;;
62707;SDS011;48769;51.624;5.886;2023-06-10T09:12:39;10.07;;;7.35;;
62707;SDS011;48769;51.624;5.886;2023-06-10T09:15:05;9.70;;;7.07;;
62707;SDS011;48769;51.624;5.886;2023-06-10T09:17:31;12.38;;;7.30;;
62707;SDS011;48769;51.624;5.886;2023-06-10T09:19:56;11.85;;;6.72;;
62707;SDS011;48769;51.624;5.886;2023-06-10T09:22:22;8.75;;;7.05;;
62707;SDS011;48769;51.624;5.886;2023-06-10T09:24:48;12.05;;;7.57;;
62707;SDS011;48769;51.624;5.886;2023-06-10T09:27:14;11.63;;;7.53;;
62707;SDS011;48769;51.624;5.886;2023-06-10T09:32:18;10.50;;;7.40;;
62707;SDS011;48769;51.624;5.886;2023-06-10T09:34:44;10.77;;;7.63;;
62707;SDS011;48769;51.624;5.886;2023-06-10T09:37:11;10.20;;;6.82;;
62707;SDS011;48769;51.624;5.886;2023-06-10T09:39:38;8.93;;;7.35;;
62707;SDS011;48769;51.624;5.886;2023-06-10T09:42:16;9.98;;;6.57;;
62707;SDS011;48769;51.624;5.886;2023-06-10T09:44:48;10.15;;;6.55;;
62707;SDS011;48769;51.624;5.886;2023-06-10T09:47:19;9.95;;;7.20;;
62707;SDS011;48769;51.624;5.886;2023-06-10T09:52:14;16.17;;;7.57;;
62707;SDS011;48769;51.624;5.886;2023-06-10T09:54:46;9.60;;;7.30;;
62707;SDS011;48769;51.624;5.886;2023-06-10T09:57:12;9.85;;;7.00;;
62707;SDS011;48769;51.624;5.886;2023-06-10T09:59:37;11.20;;;7.75;;
62707;SDS011;48769;51.624;5.886;2023-06-10T10:02:03;9.25;;;7.40;;
62707;SDS011;48769;51.624;5.886;2023-06-10T10:04:29;10.82;;;7.22;;
62707;SDS011;48769;51.624;5.886;2023-06-10T10:06:55;11.18;;;7.13;;
62707;SDS011;48769;51.624;5.886;2023-06-10T10:09:20;9.57;;;7.50;;
62707;SDS011;48769;51.624;5.886;2023-06-10T10:11:45;8.75;;;6.88;;
62707;SDS011;48769;51.624;5.886;2023-06-10T10:14:12;12.85;;;7.05;;
62707;SDS011;48769;51.624;5.886;2023-06-10T10:16:40;9.95;;;6.88;;
62707;SDS011;48769;51.624;5.886;2023-06-10T10:19:16;8.23;;;6.65;;
62707;SDS011;48769;51.624;5.886;2023-06-10T10:21:56;8.25;;;7.13;;
62707;SDS011;48769;51.624;5.886;2023-06-10T10:24:46;10.00;;;6.88;;
62707;SDS011;48769;51.624;5.886;2023-06-10T10:27:18;11.88;;;7.00;;
62707;SDS011;48769;51.624;5.886;2023-06-10T10:29:51;11.55;;;7.38;;
62707;SDS011;48769;51.624;5.886;2023-06-10T10:32:18;10.40;;;6.88;;
62707;SDS011;48769;51.624;5.886;2023-06-10T10:35:24;12.25;;;7.45;;
62707;SDS011;48769;51.624;5.886;2023-06-10T10:37:44;10.25;;;7.65;;
62707;SDS011;48769;51.624;5.886;2023-06-10T10:40:10;11.05;;;7.20;;
62707;SDS011;48769;51.624;5.886;2023-06-10T10:42:36;8.05;;;7.13;;
62707;SDS011;48769;51.624;5.886;2023-06-10T10:45:02;13.40;;;7.20;;
62707;SDS011;48769;51.624;5.886;2023-06-10T10:47:29;10.32;;;6.78;;
62707;SDS011;48769;51.624;5.886;2023-06-10T10:49:56;13.00;;;6.68;;
62707;SDS011;48769;51.624;5.886;2023-06-10T10:52:25;11.98;;;7.30;;
62707;SDS011;48769;51.624;5.886;2023-06-10T10:54:52;9.73;;;7.05;;
62707;SDS011;48769;51.624;5.886;2023-06-10T10:57:20;7.22;;;6.30;;
62707;SDS011;48769;51.624;5.886;2023-06-10T11:05:13;12.10;;;7.10;;
62707;SDS011;48769;51.624;5.886;2023-06-10T11:07:40;7.60;;;6.80;;
62707;SDS011;48769;51.624;5.886;2023-06-10T11:15:20;10.45;;;7.35;;
62707;SDS011;48769;51.624;5.886;2023-06-10T11:20:41;8.90;;;7.28;;
62707;SDS011;48769;51.624;5.886;2023-06-10T11:23:08;11.60;;;7.40;;
62707;SDS011;48769;51.624;5.886;2023-06-10T11:25:40;9.82;;;7.68;;
62707;SDS011;48769;51.624;5.886;2023-06-10T11:28:19;9.85;;;7.35;;
62707;SDS011;48769;51.624;5.886;2023-06-10T11:30:45;9.45;;;6.97;;
62707;SDS011;48769;51.624;5.886;2023-06-10T11:33:17;9.85;;;6.97;;
62707;SDS011;48769;51.624;5.886;2023-06-10T11:35:43;8.93;;;6.97;;
62707;SDS011;48769;51.624;5.886;2023-06-10T11:38:08;7.90;;;7.13;;
62707;SDS011;48769;51.624;5.886;2023-06-10T11:40:34;9.98;;;7.30;;
62707;SDS011;48769;51.624;5.886;2023-06-10T11:43:00;11.00;;;7.72;;
62707;SDS011;48769;51.624;5.886;2023-06-10T11:45:26;7.75;;;6.50;;
62707;SDS011;48769;51.624;5.886;2023-06-10T11:47:58;9.00;;;7.25;;
62707;SDS011;48769;51.624;5.886;2023-06-10T11:50:28;7.47;;;6.63;;
62707;SDS011;48769;51.624;5.886;2023-06-10T11:52:58;8.30;;;6.65;;
62707;SDS011;48769;51.624;5.886;2023-06-10T11:55:25;8.02;;;7.00;;
62707;SDS011;48769;51.624;5.886;2023-06-10T11:57:51;7.63;;;6.80;;
62707;SDS011;48769;51.624;5.886;2023-06-10T12:00:22;12.00;;;7.30;;
62707;SDS011;48769;51.624;5.886;2023-06-10T12:02:55;10.30;;;7.07;;
62707;SDS011;48769;51.624;5.886;2023-06-10T12:05:22;10.80;;;7.53;;
62707;SDS011;48769;51.624;5.886;2023-06-10T12:07:48;9.82;;;7.05;;
62707;SDS011;48769;51.624;5.886;2023-06-10T12:10:13;11.05;;;7.38;;
62707;SDS011;48769;51.624;5.886;2023-06-10T12:12:38;9.82;;;7.40;;
62707;SDS011;48769;51.624;5.886;2023-06-10T12:15:04;9.23;;;7.78;;
62707;SDS011;48769;51.624;5.886;2023-06-10T12:20:06;7.78;;;6.80;;
62707;SDS011;48769;51.624;5.886;2023-06-10T12:22:42;11.57;;;7.47;;
62707;SDS011;48769;51.624;5.886;2023-06-10T12:25:08;9.80;;;7.35;;
62707;SDS011;48769;51.624;5.886;2023-06-10T12:27:35;8.48;;;7.45;;
62707;SDS011;48769;51.624;5.886;2023-06-10T12:30:03;13.30;;;7.65;;
62707;SDS011;48769;51.624;5.886;2023-06-10T12:35:06;9.25;;;6.65;;
62707;SDS011;48769;51.624;5.886;2023-06-10T12:37:32;9.82;;;7.63;;
62707;SDS011;48769;51.624;5.886;2023-06-10T12:40:02;8.93;;;7.40;;
62707;SDS011;48769;51.624;5.886;2023-06-10T12:42:28;11.73;;;7.55;;
62707;SDS011;48769;51.624;5.886;2023-06-10T12:44:59;9.40;;;7.22;;
62707;SDS011;48769;51.624;5.886;2023-06-10T12:47:31;9.45;;;7.43;;
62707;SDS011;48769;51.624;5.886;2023-06-10T12:52:25;7.63;;;6.93;;
62707;SDS011;48769;51.624;5.886;2023-06-10T12:54:51;10.05;;;7.13;;
62707;SDS011;48769;51.624;5.886;2023-06-10T12:57:17;7.57;;;6.72;;
62707;SDS011;48769;51.624;5.886;2023-06-10T12:59:42;8.68;;;7.18;;
62707;SDS011;48769;51.624;5.886;2023-06-10T13:02:15;12.32;;;6.82;;
62707;SDS011;48769;51.624;5.886;2023-06-10T13:04:40;8.57;;;6.43;;
62707;SDS011;48769;51.624;5.886;2023-06-10T13:07:06;8.70;;;6.55;;
62707;SDS011;48769;51.624;5.886;2023-06-10T13:09:31;7.93;;;7.18;;
62707;SDS011;48769;51.624;5.886;2023-06-10T13:11:56;9.15;;;6.53;;
62707;SDS011;48769;51.624;5.886;2023-06-10T13:14:22;8.27;;;7.10;;
62707;SDS011;48769;51.624;5.886;2023-06-10T13:16:47;7.35;;;6.60;;
62707;SDS011;48769;51.624;5.886;2023-06-10T13:19:12;9.02;;;6.43;;
62707;SDS011;48769;51.624;5.886;2023-06-10T13:21:38;7.65;;;6.85;;
62707;SDS011;48769;51.624;5.886;2023-06-10T13:24:03;8.82;;;7.28;;
62707;SDS011;48769;51.624;5.886;2023-06-10T13:26:29;9.23;;;7.40;;
62707;SDS011;48769;51.624;5.886;2023-06-10T13:28:54;8.55;;;6.95;;
62707;SDS011;48769;51.624;5.886;2023-06-10T13:31:20;8.60;;;6.95;;
62707;SDS011;48769;51.624;5.886;2023-06-10T13:33:46;10.13;;;6.80;;
62707;SDS011;48769;51.624;5.886;2023-06-10T13:36:11;11.40;;;6.93;;
62707;SDS011;48769;51.624;5.886;2023-06-10T13:38:37;8.40;;;7.22;;
62707;SDS011;48769;51.624;5.886;2023-06-10T13:41:02;11.60;;;7.20;;
62707;SDS011;48769;51.624;5.886;2023-06-10T13:43:28;7.93;;;6.22;;
62707;SDS011;48769;51.624;5.886;2023-06-10T13:45:54;9.57;;;6.70;;
62707;SDS011;48769;51.624;5.886;2023-06-10T13:48:19;7.90;;;6.85;;
62707;SDS011;48769;51.624;5.886;2023-06-10T13:50:45;11.68;;;6.85;;
62707;SDS011;48769;51.624;5.886;2023-06-10T13:53:10;8.18;;;6.78;;
62707;SDS011;48769;51.624;5.886;2023-06-10T13:55:36;7.63;;;6.25;;
62707;SDS011;48769;51.624;5.886;2023-06-10T13:58:02;9.50;;;6.90;;
62707;SDS011;48769;51.624;5.886;2023-06-10T14:00:27;7.45;;;6.70;;
62707;SDS011;48769;51.624;5.886;2023-06-10T14:02:53;8.02;;;7.22;;
62707;SDS011;48769;51.624;5.886;2023-06-10T14:05:19;7.85;;;7.05;;
62707;SDS011;48769;51.624;5.886;2023-06-10T14:07:44;7.95;;;7.18;;
62707;SDS011;48769;51.624;5.886;2023-06-10T14:10:10;8.98;;;7.15;;
62707;SDS011;48769;51.624;5.886;2023-06-10T14:12:36;8.75;;;6.95;;
62707;SDS011;48769;51.624;5.886;2023-06-10T14:15:01;9.43;;;6.30;;
62707;SDS011;48769;51.624;5.886;2023-06-10T14:17:26;8.35;;;7.43;;
62707;SDS011;48769;51.624;5.886;2023-06-10T14:19:52;12.73;;;7.05;;
62707;SDS011;48769;51.624;5.886;2023-06-10T14:22:17;7.05;;;6.35;;
62707;SDS011;48769;51.624;5.886;2023-06-10T14:24:42;9.43;;;7.15;;
62707;SDS011;48769;51.624;5.886;2023-06-10T14:27:08;8.80;;;7.07;;
62707;SDS011;48769;51.624;5.886;2023-06-10T14:29:33;9.13;;;7.30;;
62707;SDS011;48769;51.624;5.886;2023-06-10T14:31:59;13.88;;;7.50;;
62707;SDS011;48769;51.624;5.886;2023-06-10T14:34:24;8.55;;;7.70;;
62707;SDS011;48769;51.624;5.886;2023-06-10T14:36:53;7.43;;;6.47;;
62707;SDS011;48769;51.624;5.886;2023-06-10T14:39:19;9.98;;;7.10;;
62707;SDS011;48769;51.624;5.886;2023-06-10T14:41:45;9.30;;;7.10;;
62707;SDS011;48769;51.624;5.886;2023-06-10T14:44:10;8.77;;;7.32;;
62707;SDS011;48769;51.624;5.886;2023-06-10T14:46:35;7.80;;;7.10;;
62707;SDS011;48769;51.624;5.886;2023-06-10T14:49:00;8.40;;;7.15;;
62707;SDS011;48769;51.624;5.886;2023-06-10T14:51:27;9.15;;;7.10;;
62707;SDS011;48769;51.624;5.886;2023-06-10T14:53:52;10.73;;;7.15;;
62707;SDS011;48769;51.624;5.886;2023-06-10T14:56:18;12.48;;;7.47;;
62707;SDS011;48769;51.624;5.886;2023-06-10T14:58:43;8.85;;;7.18;;
62707;SDS011;48769;51.624;5.886;2023-06-10T15:01:08;9.35;;;6.97;;